sensor_id;sensor_type;location;lat;lon;timestamp;temperature;humidity
18297;DHT22;18066;52.106;5.534;2023-07-22T00:01:17;15.20;99.90
18297;DHT22;18066;52.106;5.534;2023-07-22T00:03:44;15.20;99.90
18297;DHT22;18066;52.106;5.534;2023-07-22T00:06:11;15.10;99.90
18297;DHT22;18066;52.106;5.534;2023-07-22T00:08:38;15.20;99.90
18297;DHT22;18066;52.106;5.534;2023-07-22T00:11:07;15.20;99.90
18297;DHT22;18066;52.106;5.534;2023-07-22T00:13:34;15.10;99.90
18297;DHT22;18066;52.106;5.534;2023-07-22T00:16:02;15.10;99.90
18297;DHT22;18066;52.106;5.534;2023-07-22T00:18:30;15.00;99.90
18297;DHT22;18066;52.106;5.534;2023-07-22T00:20:57;14.90;99.90
18297;DHT22;18066;52.106;5.534;2023-07-22T00:23:24;14.90;99.90
18297;DHT22;18066;52.106;5.534;2023-07-22T00:25:51;14.90;99.90
18297;DHT22;18066;52.106;5.534;2023-07-22T00:28:19;14.90;99.90
18297;DHT22;18066;52.106;5.534;2023-07-22T00:30:46;15.00;99.90
18297;DHT22;18066;52.106;5.534;2023-07-22T00:33:14;15.00;99.90
18297;DHT22;18066;52.106;5.534;2023-07-22T00:35:41;15.00;99.90
18297;DHT22;18066;52.106;5.534;2023-07-22T00:38:08;15.10;99.90
18297;DHT22;18066;52.106;5.534;2023-07-22T00:40:36;15.10;99.90
18297;DHT22;18066;52.106;5.534;2023-07-22T00:43:03;15.10;99.90
18297;DHT22;18066;52.106;5.534;2023-07-22T00:45:31;15.20;99.90
18297;DHT22;18066;52.106;5.534;2023-07-22T00:47:58;15.10;99.90
18297;DHT22;18066;52.106;5.534;2023-07-22T00:50:25;15.20;99.90
18297;DHT22;18066;52.106;5.534;2023-07-22T00:52:53;15.20;99.90
18297;DHT22;18066;52.106;5.534;2023-07-22T00:55:21;15.20;99.90
18297;DHT22;18066;52.106;5.534;2023-07-22T00:57:48;15.10;99.90
18297;DHT22;18066;52.106;5.534;2023-07-22T01:00:15;15.10;99.90
18297;DHT22;18066;52.106;5.534;2023-07-22T01:02:43;15.10;99.90
18297;DHT22;18066;52.106;5.534;2023-07-22T01:05:11;15.00;99.90
18297;DHT22;18066;52.106;5.534;2023-07-22T01:07:39;14.90;99.90
18297;DHT22;18066;52.106;5.534;2023-07-22T01:10:07;15.00;99.90
18297;DHT22;18066;52.106;5.534;2023-07-22T01:12:35;15.00;99.90
18297;DHT22;18066;52.106;5.534;2023-07-22T01:15:02;15.00;99.90
18297;DHT22;18066;52.106;5.534;2023-07-22T01:17:33;14.90;99.90
18297;DHT22;18066;52.106;5.534;2023-07-22T01:20:02;14.90;99.90
18297;DHT22;18066;52.106;5.534;2023-07-22T01:22:29;14.90;99.90
18297;DHT22;18066;52.106;5.534;2023-07-22T01:24:58;14.90;99.90
18297;DHT22;18066;52.106;5.534;2023-07-22T01:27:25;14.90;99.90
18297;DHT22;18066;52.106;5.534;2023-07-22T01:29:52;14.90;99.90
18297;DHT22;18066;52.106;5.534;2023-07-22T01:32:19;14.90;99.90
18297;DHT22;18066;52.106;5.534;2023-07-22T01:34:46;14.90;99.90
18297;DHT22;18066;52.106;5.534;2023-07-22T01:37:13;14.90;99.90
18297;DHT22;18066;52.106;5.534;2023-07-22T01:39:40;14.90;99.90
18297;DHT22;18066;52.106;5.534;2023-07-22T01:42:08;14.90;99.90
18297;DHT22;18066;52.106;5.534;2023-07-22T01:44:35;14.90;99.90
18297;DHT22;18066;52.106;5.534;2023-07-22T01:47:02;14.90;99.90
18297;DHT22;18066;52.106;5.534;2023-07-22T01:49:29;14.90;99.90
18297;DHT22;18066;52.106;5.534;2023-07-22T01:51:56;14.80;99.90
18297;DHT22;18066;52.106;5.534;2023-07-22T01:54:23;14.80;99.90
18297;DHT22;18066;52.106;5.534;2023-07-22T01:56:50;14.70;99.90
18297;DHT22;18066;52.106;5.534;2023-07-22T01:59:18;14.70;99.90
18297;DHT22;18066;52.106;5.534;2023-07-22T02:01:45;14.70;99.90
18297;DHT22;18066;52.106;5.534;2023-07-22T02:04:13;14.70;99.90
18297;DHT22;18066;52.106;5.534;2023-07-22T02:06:39;14.60;99.90
18297;DHT22;18066;52.106;5.534;2023-07-22T02:09:06;14.60;99.90
18297;DHT22;18066;52.106;5.534;2023-07-22T02:11:34;14.60;99.90
18297;DHT22;18066;52.106;5.534;2023-07-22T02:14:01;14.50;99.90
18297;DHT22;18066;52.106;5.534;2023-07-22T02:16:33;14.50;99.90
18297;DHT22;18066;52.106;5.534;2023-07-22T02:19:00;14.50;99.90
18297;DHT22;18066;52.106;5.534;2023-07-22T02:21:27;14.50;99.90
18297;DHT22;18066;52.106;5.534;2023-07-22T02:23:54;14.40;99.90
18297;DHT22;18066;52.106;5.534;2023-07-22T02:26:21;14.50;99.90
18297;DHT22;18066;52.106;5.534;2023-07-22T02:28:48;14.50;99.90
18297;DHT22;18066;52.106;5.534;2023-07-22T02:31:15;14.40;99.90
18297;DHT22;18066;52.106;5.534;2023-07-22T02:33:43;14.40;99.90
18297;DHT22;18066;52.106;5.534;2023-07-22T02:36:10;14.30;99.90
18297;DHT22;18066;52.106;5.534;2023-07-22T02:38:37;14.30;99.90
18297;DHT22;18066;52.106;5.534;2023-07-22T02:41:04;14.30;99.90
18297;DHT22;18066;52.106;5.534;2023-07-22T02:43:33;14.20;99.90
18297;DHT22;18066;52.106;5.534;2023-07-22T02:46:01;14.30;99.90
18297;DHT22;18066;52.106;5.534;2023-07-22T02:48:28;14.20;99.90
18297;DHT22;18066;52.106;5.534;2023-07-22T02:51:02;14.20;99.90
18297;DHT22;18066;52.106;5.534;2023-07-22T02:53:30;14.20;99.90
18297;DHT22;18066;52.106;5.534;2023-07-22T02:55:57;14.20;99.90
18297;DHT22;18066;52.106;5.534;2023-07-22T02:58:24;14.10;99.90
18297;DHT22;18066;52.106;5.534;2023-07-22T03:00:51;14.20;99.90
18297;DHT22;18066;52.106;5.534;2023-07-22T03:03:18;14.10;99.90
18297;DHT22;18066;52.106;5.534;2023-07-22T03:05:45;14.10;99.90
18297;DHT22;18066;52.106;5.534;2023-07-22T03:08:14;14.10;99.90
18297;DHT22;18066;52.106;5.534;2023-07-22T03:10:41;14.10;99.90
18297;DHT22;18066;52.106;5.534;2023-07-22T03:13:12;14.10;99.90
18297;DHT22;18066;52.106;5.534;2023-07-22T03:15:39;14.10;99.90
18297;DHT22;18066;52.106;5.534;2023-07-22T03:18:06;14.10;99.90
18297;DHT22;18066;52.106;5.534;2023-07-22T03:20:35;14.10;99.90
18297;DHT22;18066;52.106;5.534;2023-07-22T03:23:02;14.10;99.90
18297;DHT22;18066;52.106;5.534;2023-07-22T03:25:30;14.00;99.90
18297;DHT22;18066;52.106;5.534;2023-07-22T03:27:57;14.00;99.90
18297;DHT22;18066;52.106;5.534;2023-07-22T03:30:25;14.10;99.90
18297;DHT22;18066;52.106;5.534;2023-07-22T03:32:52;14.00;99.90
18297;DHT22;18066;52.106;5.534;2023-07-22T03:35:19;14.10;99.90
18297;DHT22;18066;52.106;5.534;2023-07-22T03:37:46;14.00;99.90
18297;DHT22;18066;52.106;5.534;2023-07-22T03:40:12;14.10;99.90
18297;DHT22;18066;52.106;5.534;2023-07-22T03:42:46;14.10;99.90
18297;DHT22;18066;52.106;5.534;2023-07-22T03:45:13;14.10;99.90
18297;DHT22;18066;52.106;5.534;2023-07-22T03:47:40;14.10;99.90
18297;DHT22;18066;52.106;5.534;2023-07-22T03:50:07;14.10;99.90
18297;DHT22;18066;52.106;5.534;2023-07-22T03:52:34;14.10;99.90
18297;DHT22;18066;52.106;5.534;2023-07-22T03:55:01;14.10;99.90
18297;DHT22;18066;52.106;5.534;2023-07-22T03:57:29;14.10;99.90
18297;DHT22;18066;52.106;5.534;2023-07-22T03:59:57;14.10;99.90
18297;DHT22;18066;52.106;5.534;2023-07-22T04:02:24;14.00;99.90
18297;DHT22;18066;52.106;5.534;2023-07-22T04:04:52;14.10;99.90
18297;DHT22;18066;52.106;5.534;2023-07-22T04:07:20;14.10;99.90
18297;DHT22;18066;52.106;5.534;2023-07-22T04:09:47;14.10;99.90
18297;DHT22;18066;52.106;5.534;2023-07-22T04:12:15;14.10;99.90
18297;DHT22;18066;52.106;5.534;2023-07-22T04:14:42;14.10;99.90
18297;DHT22;18066;52.106;5.534;2023-07-22T04:17:10;14.20;99.90
18297;DHT22;18066;52.106;5.534;2023-07-22T04:19:37;14.20;99.90
18297;DHT22;18066;52.106;5.534;2023-07-22T04:22:04;14.20;99.90
18297;DHT22;18066;52.106;5.534;2023-07-22T04:24:32;14.20;99.90
18297;DHT22;18066;52.106;5.534;2023-07-22T04:26:59;14.30;99.90
18297;DHT22;18066;52.106;5.534;2023-07-22T04:29:26;14.40;99.90
18297;DHT22;18066;52.106;5.534;2023-07-22T04:31:57;14.40;99.90
18297;DHT22;18066;52.106;5.534;2023-07-22T04:34:28;14.40;99.90
18297;DHT22;18066;52.106;5.534;2023-07-22T04:36:55;14.50;99.90
18297;DHT22;18066;52.106;5.534;2023-07-22T04:39:23;14.40;99.90
18297;DHT22;18066;52.106;5.534;2023-07-22T04:41:50;14.50;99.90
18297;DHT22;18066;52.106;5.534;2023-07-22T04:44:17;14.60;99.90
18297;DHT22;18066;52.106;5.534;2023-07-22T04:46:44;14.60;99.90
18297;DHT22;18066;52.106;5.534;2023-07-22T04:49:11;14.60;99.90
18297;DHT22;18066;52.106;5.534;2023-07-22T04:51:39;14.70;99.90
18297;DHT22;18066;52.106;5.534;2023-07-22T04:54:06;14.80;99.90
18297;DHT22;18066;52.106;5.534;2023-07-22T04:56:33;14.80;99.90
18297;DHT22;18066;52.106;5.534;2023-07-22T04:59:00;14.90;99.90
18297;DHT22;18066;52.106;5.534;2023-07-22T05:01:27;14.90;99.90
18297;DHT22;18066;52.106;5.534;2023-07-22T05:03:53;14.90;99.90
18297;DHT22;18066;52.106;5.534;2023-07-22T05:06:21;15.00;99.90
18297;DHT22;18066;52.106;5.534;2023-07-22T05:08:50;15.00;99.90
18297;DHT22;18066;52.106;5.534;2023-07-22T05:11:17;15.10;99.90
18297;DHT22;18066;52.106;5.534;2023-07-22T05:13:44;15.10;99.90
18297;DHT22;18066;52.106;5.534;2023-07-22T05:16:11;15.20;99.90
18297;DHT22;18066;52.106;5.534;2023-07-22T05:18:38;15.30;99.90
18297;DHT22;18066;52.106;5.534;2023-07-22T05:21:04;15.30;99.90
18297;DHT22;18066;52.106;5.534;2023-07-22T05:23:32;15.40;99.90
18297;DHT22;18066;52.106;5.534;2023-07-22T05:26:00;15.50;99.90
18297;DHT22;18066;52.106;5.534;2023-07-22T05:28:27;15.50;99.90
18297;DHT22;18066;52.106;5.534;2023-07-22T05:30:55;15.60;99.90
18297;DHT22;18066;52.106;5.534;2023-07-22T05:33:22;15.50;99.90
18297;DHT22;18066;52.106;5.534;2023-07-22T05:35:49;15.60;99.90
18297;DHT22;18066;52.106;5.534;2023-07-22T05:38:16;15.60;99.90
18297;DHT22;18066;52.106;5.534;2023-07-22T05:40:43;15.70;99.90
18297;DHT22;18066;52.106;5.534;2023-07-22T05:43:11;15.70;99.90
18297;DHT22;18066;52.106;5.534;2023-07-22T05:45:38;15.80;99.90
18297;DHT22;18066;52.106;5.534;2023-07-22T05:48:05;15.70;99.90
18297;DHT22;18066;52.106;5.534;2023-07-22T05:50:32;15.80;99.90
18297;DHT22;18066;52.106;5.534;2023-07-22T05:52:59;15.90;99.90
18297;DHT22;18066;52.106;5.534;2023-07-22T05:55:26;15.90;99.90
18297;DHT22;18066;52.106;5.534;2023-07-22T05:57:53;15.90;99.90
18297;DHT22;18066;52.106;5.534;2023-07-22T06:00:21;16.00;99.90
18297;DHT22;18066;52.106;5.534;2023-07-22T06:02:48;16.10;99.90
18297;DHT22;18066;52.106;5.534;2023-07-22T06:05:16;16.10;99.90
18297;DHT22;18066;52.106;5.534;2023-07-22T06:07:42;16.20;99.90
18297;DHT22;18066;52.106;5.534;2023-07-22T06:10:09;16.30;99.90
18297;DHT22;18066;52.106;5.534;2023-07-22T06:12:36;16.20;99.90
18297;DHT22;18066;52.106;5.534;2023-07-22T06:15:04;16.30;99.90
18297;DHT22;18066;52.106;5.534;2023-07-22T06:17:33;16.30;99.90
18297;DHT22;18066;52.106;5.534;2023-07-22T06:20:00;16.40;99.90
18297;DHT22;18066;52.106;5.534;2023-07-22T06:22:27;16.50;99.90
18297;DHT22;18066;52.106;5.534;2023-07-22T06:24:54;16.60;99.90
18297;DHT22;18066;52.106;5.534;2023-07-22T06:27:20;16.60;99.90
18297;DHT22;18066;52.106;5.534;2023-07-22T06:29:47;16.80;99.90
18297;DHT22;18066;52.106;5.534;2023-07-22T06:32:14;16.80;99.90
18297;DHT22;18066;52.106;5.534;2023-07-22T06:34:42;16.80;99.90
18297;DHT22;18066;52.106;5.534;2023-07-22T06:37:09;16.80;99.90
18297;DHT22;18066;52.106;5.534;2023-07-22T06:39:36;16.80;99.90
18297;DHT22;18066;52.106;5.534;2023-07-22T06:42:03;16.90;99.90
18297;DHT22;18066;52.106;5.534;2023-07-22T06:44:30;17.10;99.90
18297;DHT22;18066;52.106;5.534;2023-07-22T06:46:57;17.30;99.90
18297;DHT22;18066;52.106;5.534;2023-07-22T06:49:23;17.50;99.90
18297;DHT22;18066;52.106;5.534;2023-07-22T06:51:52;17.70;99.90
18297;DHT22;18066;52.106;5.534;2023-07-22T06:54:18;17.80;99.90
18297;DHT22;18066;52.106;5.534;2023-07-22T06:56:45;18.00;99.90
18297;DHT22;18066;52.106;5.534;2023-07-22T06:59:12;18.10;99.90
18297;DHT22;18066;52.106;5.534;2023-07-22T07:01:39;18.30;99.90
18297;DHT22;18066;52.106;5.534;2023-07-22T07:04:06;18.40;99.90
18297;DHT22;18066;52.106;5.534;2023-07-22T07:06:33;18.60;99.90
18297;DHT22;18066;52.106;5.534;2023-07-22T07:09:02;18.60;99.90
18297;DHT22;18066;52.106;5.534;2023-07-22T07:11:30;18.70;99.90
18297;DHT22;18066;52.106;5.534;2023-07-22T07:13:57;18.70;99.90
18297;DHT22;18066;52.106;5.534;2023-07-22T07:16:25;18.60;99.90
18297;DHT22;18066;52.106;5.534;2023-07-22T07:18:52;18.60;99.90
18297;DHT22;18066;52.106;5.534;2023-07-22T07:21:20;18.40;99.90
18297;DHT22;18066;52.106;5.534;2023-07-22T07:23:47;18.40;99.90
18297;DHT22;18066;52.106;5.534;2023-07-22T07:26:16;18.40;99.90
18297;DHT22;18066;52.106;5.534;2023-07-22T07:28:43;18.40;99.90
18297;DHT22;18066;52.106;5.534;2023-07-22T07:31:09;18.60;99.90
18297;DHT22;18066;52.106;5.534;2023-07-22T07:33:36;18.70;99.90
18297;DHT22;18066;52.106;5.534;2023-07-22T07:36:04;18.80;99.90
18297;DHT22;18066;52.106;5.534;2023-07-22T07:38:31;18.90;99.90
18297;DHT22;18066;52.106;5.534;2023-07-22T07:40:59;18.90;99.90
18297;DHT22;18066;52.106;5.534;2023-07-22T07:43:28;19.00;99.90
18297;DHT22;18066;52.106;5.534;2023-07-22T07:46:13;19.00;99.90
18297;DHT22;18066;52.106;5.534;2023-07-22T07:48:43;18.90;99.90
18297;DHT22;18066;52.106;5.534;2023-07-22T07:51:10;18.90;99.90
18297;DHT22;18066;52.106;5.534;2023-07-22T07:53:37;18.90;99.90
18297;DHT22;18066;52.106;5.534;2023-07-22T07:56:04;19.00;99.90
18297;DHT22;18066;52.106;5.534;2023-07-22T07:58:32;19.20;99.90
18297;DHT22;18066;52.106;5.534;2023-07-22T08:00:59;19.20;99.90
18297;DHT22;18066;52.106;5.534;2023-07-22T08:03:26;19.20;99.90
18297;DHT22;18066;52.106;5.534;2023-07-22T08:05:53;19.20;99.90
18297;DHT22;18066;52.106;5.534;2023-07-22T08:08:20;19.10;99.90
18297;DHT22;18066;52.106;5.534;2023-07-22T08:10:47;19.10;99.90
18297;DHT22;18066;52.106;5.534;2023-07-22T08:13:14;19.10;99.90
18297;DHT22;18066;52.106;5.534;2023-07-22T08:15:42;19.10;99.90
18297;DHT22;18066;52.106;5.534;2023-07-22T08:18:09;19.20;99.90
18297;DHT22;18066;52.106;5.534;2023-07-22T08:20:35;19.20;99.90
18297;DHT22;18066;52.106;5.534;2023-07-22T08:23:02;19.30;99.90
18297;DHT22;18066;52.106;5.534;2023-07-22T08:25:29;19.30;99.90
18297;DHT22;18066;52.106;5.534;2023-07-22T08:27:56;19.30;99.90
18297;DHT22;18066;52.106;5.534;2023-07-22T08:30:23;19.40;99.90
18297;DHT22;18066;52.106;5.534;2023-07-22T08:32:51;19.40;99.90
18297;DHT22;18066;52.106;5.534;2023-07-22T08:35:18;19.40;99.90
18297;DHT22;18066;52.106;5.534;2023-07-22T08:37:45;19.60;99.90
18297;DHT22;18066;52.106;5.534;2023-07-22T08:40:12;19.90;99.90
18297;DHT22;18066;52.106;5.534;2023-07-22T08:42:40;20.10;99.90
18297;DHT22;18066;52.106;5.534;2023-07-22T08:45:09;20.30;99.90
18297;DHT22;18066;52.106;5.534;2023-07-22T08:47:40;20.30;99.90
18297;DHT22;18066;52.106;5.534;2023-07-22T08:50:13;20.20;99.90
18297;DHT22;18066;52.106;5.534;2023-07-22T08:52:41;20.20;99.90
18297;DHT22;18066;52.106;5.534;2023-07-22T08:55:08;20.10;99.90
18297;DHT22;18066;52.106;5.534;2023-07-22T08:57:36;20.10;99.90
18297;DHT22;18066;52.106;5.534;2023-07-22T09:00:04;20.10;99.90
18297;DHT22;18066;52.106;5.534;2023-07-22T09:02:33;20.30;99.90
18297;DHT22;18066;52.106;5.534;2023-07-22T09:05:00;20.40;99.90
18297;DHT22;18066;52.106;5.534;2023-07-22T09:07:28;20.60;99.90
18297;DHT22;18066;52.106;5.534;2023-07-22T09:09:57;20.70;99.90
18297;DHT22;18066;52.106;5.534;2023-07-22T09:12:24;20.80;99.90
18297;DHT22;18066;52.106;5.534;2023-07-22T09:14:52;20.80;99.90
18297;DHT22;18066;52.106;5.534;2023-07-22T09:17:19;21.00;99.90
18297;DHT22;18066;52.106;5.534;2023-07-22T09:19:51;21.10;99.90
18297;DHT22;18066;52.106;5.534;2023-07-22T09:22:18;21.20;99.90
18297;DHT22;18066;52.106;5.534;2023-07-22T09:24:46;21.10;99.90
18297;DHT22;18066;52.106;5.534;2023-07-22T09:27:13;21.20;99.90
18297;DHT22;18066;52.106;5.534;2023-07-22T09:29:40;21.00;99.90
18297;DHT22;18066;52.106;5.534;2023-07-22T09:32:07;20.80;99.90
18297;DHT22;18066;52.106;5.534;2023-07-22T09:34:34;20.60;99.90
18297;DHT22;18066;52.106;5.534;2023-07-22T09:37:01;20.60;99.90
18297;DHT22;18066;52.106;5.534;2023-07-22T09:39:29;20.50;99.90
18297;DHT22;18066;52.106;5.534;2023-07-22T09:41:57;20.40;99.90
18297;DHT22;18066;52.106;5.534;2023-07-22T09:44:29;20.30;99.90
18297;DHT22;18066;52.106;5.534;2023-07-22T09:46:56;20.20;99.90
18297;DHT22;18066;52.106;5.534;2023-07-22T09:49:23;20.30;99.90
18297;DHT22;18066;52.106;5.534;2023-07-22T09:51:50;20.30;99.90
18297;DHT22;18066;52.106;5.534;2023-07-22T09:54:19;20.40;99.90
18297;DHT22;18066;52.106;5.534;2023-07-22T09:56:47;20.50;99.90
18297;DHT22;18066;52.106;5.534;2023-07-22T09:59:18;20.40;99.90
18297;DHT22;18066;52.106;5.534;2023-07-22T10:01:46;20.60;99.90
18297;DHT22;18066;52.106;5.534;2023-07-22T10:04:16;20.60;99.90
18297;DHT22;18066;52.106;5.534;2023-07-22T10:06:43;20.60;99.90
18297;DHT22;18066;52.106;5.534;2023-07-22T10:09:11;20.50;99.90
18297;DHT22;18066;52.106;5.534;2023-07-22T10:11:39;20.50;99.90
18297;DHT22;18066;52.106;5.534;2023-07-22T10:14:06;20.50;99.90
18297;DHT22;18066;52.106;5.534;2023-07-22T10:16:34;20.50;99.90
18297;DHT22;18066;52.106;5.534;2023-07-22T10:19:02;20.50;99.90
18297;DHT22;18066;52.106;5.534;2023-07-22T10:21:30;20.40;99.90
18297;DHT22;18066;52.106;5.534;2023-07-22T10:24:00;20.40;99.90
18297;DHT22;18066;52.106;5.534;2023-07-22T10:26:29;20.60;99.90
18297;DHT22;18066;52.106;5.534;2023-07-22T10:28:57;20.70;99.90
18297;DHT22;18066;52.106;5.534;2023-07-22T10:31:25;20.90;99.90
18297;DHT22;18066;52.106;5.534;2023-07-22T10:33:53;20.90;99.90
18297;DHT22;18066;52.106;5.534;2023-07-22T10:36:20;21.00;99.90
18297;DHT22;18066;52.106;5.534;2023-07-22T10:38:55;21.10;99.90
18297;DHT22;18066;52.106;5.534;2023-07-22T10:41:22;21.00;99.90
18297;DHT22;18066;52.106;5.534;2023-07-22T10:43:54;21.20;99.90
18297;DHT22;18066;52.106;5.534;2023-07-22T10:46:31;21.10;99.90
18297;DHT22;18066;52.106;5.534;2023-07-22T10:49:07;21.00;99.90
18297;DHT22;18066;52.106;5.534;2023-07-22T10:51:36;20.90;99.90
18297;DHT22;18066;52.106;5.534;2023-07-22T10:54:03;20.80;99.90
18297;DHT22;18066;52.106;5.534;2023-07-22T10:56:36;20.80;99.90
18297;DHT22;18066;52.106;5.534;2023-07-22T10:59:03;20.80;99.90
18297;DHT22;18066;52.106;5.534;2023-07-22T11:01:33;20.80;99.90
18297;DHT22;18066;52.106;5.534;2023-07-22T11:04:12;20.80;99.90
18297;DHT22;18066;52.106;5.534;2023-07-22T11:06:52;20.40;99.90
18297;DHT22;18066;52.106;5.534;2023-07-22T11:09:38;20.20;99.90
18297;DHT22;18066;52.106;5.534;2023-07-22T11:12:09;19.80;99.90
18297;DHT22;18066;52.106;5.534;2023-07-22T11:14:45;19.40;99.90
18297;DHT22;18066;52.106;5.534;2023-07-22T11:17:12;19.00;99.90
18297;DHT22;18066;52.106;5.534;2023-07-22T11:19:41;18.80;99.90
18297;DHT22;18066;52.106;5.534;2023-07-22T11:22:07;18.90;99.90
18297;DHT22;18066;52.106;5.534;2023-07-22T11:24:35;19.10;99.90
18297;DHT22;18066;52.106;5.534;2023-07-22T11:27:03;19.40;99.90
18297;DHT22;18066;52.106;5.534;2023-07-22T11:29:30;19.60;99.90
18297;DHT22;18066;52.106;5.534;2023-07-22T11:31:57;19.80;99.90
18297;DHT22;18066;52.106;5.534;2023-07-22T11:34:25;19.90;99.90
18297;DHT22;18066;52.106;5.534;2023-07-22T11:36:54;19.90;99.90
18297;DHT22;18066;52.106;5.534;2023-07-22T11:39:23;20.00;99.90
18297;DHT22;18066;52.106;5.534;2023-07-22T11:41:50;20.00;99.90
18297;DHT22;18066;52.106;5.534;2023-07-22T11:44:20;20.10;99.90
18297;DHT22;18066;52.106;5.534;2023-07-22T11:46:51;20.20;99.90
18297;DHT22;18066;52.106;5.534;2023-07-22T11:49:26;20.40;99.90
18297;DHT22;18066;52.106;5.534;2023-07-22T11:51:59;20.50;99.90
18297;DHT22;18066;52.106;5.534;2023-07-22T11:54:26;20.60;99.90
18297;DHT22;18066;52.106;5.534;2023-07-22T11:56:54;20.90;99.90
18297;DHT22;18066;52.106;5.534;2023-07-22T11:59:33;21.10;99.90
18297;DHT22;18066;52.106;5.534;2023-07-22T12:02:01;21.00;99.90
18297;DHT22;18066;52.106;5.534;2023-07-22T12:04:28;20.80;99.90
18297;DHT22;18066;52.106;5.534;2023-07-22T12:06:56;20.60;99.90
18297;DHT22;18066;52.106;5.534;2023-07-22T12:09:23;20.40;99.90
18297;DHT22;18066;52.106;5.534;2023-07-22T12:11:55;20.10;99.90
18297;DHT22;18066;52.106;5.534;2023-07-22T12:14:24;19.60;99.90
18297;DHT22;18066;52.106;5.534;2023-07-22T12:16:55;19.20;99.90
18297;DHT22;18066;52.106;5.534;2023-07-22T12:19:23;19.00;99.90
18297;DHT22;18066;52.106;5.534;2023-07-22T12:21:49;18.70;99.90
18297;DHT22;18066;52.106;5.534;2023-07-22T12:24:18;18.50;99.90
18297;DHT22;18066;52.106;5.534;2023-07-22T12:26:44;18.50;99.90
18297;DHT22;18066;52.106;5.534;2023-07-22T12:29:11;18.50;99.90
18297;DHT22;18066;52.106;5.534;2023-07-22T12:31:38;18.50;99.90
18297;DHT22;18066;52.106;5.534;2023-07-22T12:34:05;18.40;99.90
18297;DHT22;18066;52.106;5.534;2023-07-22T12:36:32;18.30;99.90
18297;DHT22;18066;52.106;5.534;2023-07-22T12:38:59;18.30;99.90
18297;DHT22;18066;52.106;5.534;2023-07-22T12:41:27;18.30;99.90
18297;DHT22;18066;52.106;5.534;2023-07-22T12:43:54;18.40;99.90
18297;DHT22;18066;52.106;5.534;2023-07-22T12:46:21;18.40;99.90
18297;DHT22;18066;52.106;5.534;2023-07-22T12:48:47;18.50;99.90
18297;DHT22;18066;52.106;5.534;2023-07-22T12:51:14;18.60;99.90
18297;DHT22;18066;52.106;5.534;2023-07-22T12:53:41;18.60;99.90
18297;DHT22;18066;52.106;5.534;2023-07-22T12:56:08;18.60;99.90
18297;DHT22;18066;52.106;5.534;2023-07-22T12:58:36;18.60;99.90
18297;DHT22;18066;52.106;5.534;2023-07-22T13:01:03;18.70;99.90
18297;DHT22;18066;52.106;5.534;2023-07-22T13:03:30;18.70;99.90
18297;DHT22;18066;52.106;5.534;2023-07-22T13:05:57;18.80;99.90
18297;DHT22;18066;52.106;5.534;2023-07-22T13:08:24;18.80;99.90
18297;DHT22;18066;52.106;5.534;2023-07-22T13:10:50;18.90;99.90
18297;DHT22;18066;52.106;5.534;2023-07-22T13:13:17;18.90;99.90
18297;DHT22;18066;52.106;5.534;2023-07-22T13:15:45;19.00;99.90
18297;DHT22;18066;52.106;5.534;2023-07-22T13:18:12;19.10;99.90
18297;DHT22;18066;52.106;5.534;2023-07-22T13:20:42;19.30;99.90
18297;DHT22;18066;52.106;5.534;2023-07-22T13:23:09;19.20;99.90
18297;DHT22;18066;52.106;5.534;2023-07-22T13:25:35;19.30;99.90
18297;DHT22;18066;52.106;5.534;2023-07-22T13:28:03;19.20;99.90
18297;DHT22;18066;52.106;5.534;2023-07-22T13:30:29;19.00;99.90
18297;DHT22;18066;52.106;5.534;2023-07-22T13:32:57;19.00;99.90
18297;DHT22;18066;52.106;5.534;2023-07-22T13:35:24;19.00;99.90
18297;DHT22;18066;52.106;5.534;2023-07-22T13:37:51;19.00;99.90
18297;DHT22;18066;52.106;5.534;2023-07-22T13:40:18;19.00;99.90
18297;DHT22;18066;52.106;5.534;2023-07-22T13:42:45;18.80;99.90
18297;DHT22;18066;52.106;5.534;2023-07-22T13:45:12;18.70;99.90
18297;DHT22;18066;52.106;5.534;2023-07-22T13:47:38;18.60;99.90
18297;DHT22;18066;52.106;5.534;2023-07-22T13:50:07;18.60;99.90
18297;DHT22;18066;52.106;5.534;2023-07-22T13:52:34;18.60;99.90
18297;DHT22;18066;52.106;5.534;2023-07-22T13:55:01;18.30;99.90
18297;DHT22;18066;52.106;5.534;2023-07-22T13:57:28;18.20;99.90
18297;DHT22;18066;52.106;5.534;2023-07-22T13:59:55;18.10;99.90
18297;DHT22;18066;52.106;5.534;2023-07-22T14:02:22;18.00;99.90
18297;DHT22;18066;52.106;5.534;2023-07-22T14:04:48;18.00;99.90
18297;DHT22;18066;52.106;5.534;2023-07-22T14:07:17;18.10;99.90
18297;DHT22;18066;52.106;5.534;2023-07-22T14:09:43;18.10;99.90
18297;DHT22;18066;52.106;5.534;2023-07-22T14:12:10;18.20;99.90
18297;DHT22;18066;52.106;5.534;2023-07-22T14:14:37;18.30;99.90
18297;DHT22;18066;52.106;5.534;2023-07-22T14:17:05;18.30;99.90
18297;DHT22;18066;52.106;5.534;2023-07-22T14:19:32;18.40;99.90
18297;DHT22;18066;52.106;5.534;2023-07-22T14:21:59;18.50;99.90
18297;DHT22;18066;52.106;5.534;2023-07-22T14:24:27;18.50;99.90
18297;DHT22;18066;52.106;5.534;2023-07-22T14:26:54;18.60;99.90
18297;DHT22;18066;52.106;5.534;2023-07-22T14:29:21;18.70;99.90
18297;DHT22;18066;52.106;5.534;2023-07-22T14:31:48;18.80;99.90
18297;DHT22;18066;52.106;5.534;2023-07-22T14:34:14;18.80;99.90
18297;DHT22;18066;52.106;5.534;2023-07-22T14:36:41;18.80;99.90
18297;DHT22;18066;52.106;5.534;2023-07-22T14:39:09;19.00;99.90
18297;DHT22;18066;52.106;5.534;2023-07-22T14:41:37;19.10;99.90
18297;DHT22;18066;52.106;5.534;2023-07-22T14:44:04;19.10;99.90
18297;DHT22;18066;52.106;5.534;2023-07-22T14:46:31;19.20;99.90
18297;DHT22;18066;52.106;5.534;2023-07-22T14:48:58;19.30;99.90
18297;DHT22;18066;52.106;5.534;2023-07-22T14:51:25;19.30;99.90
18297;DHT22;18066;52.106;5.534;2023-07-22T14:53:52;19.30;99.90
18297;DHT22;18066;52.106;5.534;2023-07-22T14:56:19;19.30;99.90
18297;DHT22;18066;52.106;5.534;2023-07-22T14:58:47;19.30;99.90
18297;DHT22;18066;52.106;5.534;2023-07-22T15:01:15;19.40;99.90
18297;DHT22;18066;52.106;5.534;2023-07-22T15:03:41;19.40;99.90
18297;DHT22;18066;52.106;5.534;2023-07-22T15:06:08;19.50;99.90
18297;DHT22;18066;52.106;5.534;2023-07-22T15:08:35;19.50;99.90
18297;DHT22;18066;52.106;5.534;2023-07-22T15:11:02;19.50;99.90
18297;DHT22;18066;52.106;5.534;2023-07-22T15:13:28;19.60;99.90
18297;DHT22;18066;52.106;5.534;2023-07-22T15:15:57;19.60;99.90
18297;DHT22;18066;52.106;5.534;2023-07-22T15:18:24;19.50;99.90
18297;DHT22;18066;52.106;5.534;2023-07-22T15:20:51;19.50;99.90
18297;DHT22;18066;52.106;5.534;2023-07-22T15:23:18;19.40;99.90
18297;DHT22;18066;52.106;5.534;2023-07-22T15:25:45;19.40;99.90
18297;DHT22;18066;52.106;5.534;2023-07-22T15:28:12;19.40;99.90
18297;DHT22;18066;52.106;5.534;2023-07-22T15:30:38;19.40;99.90
18297;DHT22;18066;52.106;5.534;2023-07-22T15:33:08;19.30;99.90